• Join FlightAware (Why Join?)
  • Login
  • US Flag 
08:34AM EDT


 

Airport Tracker/Info


-or-


 

Live Flight TrackerFlight Track Log ✈ N252HM ✈ 17-Jun-2013 ✈ 5R1 - KPLR

Flight Track Log - Related Links

Times and Time Zones

All times are in EDT time to prevent confusion due to time zone crossing. See the N252HM flight status page for this flight to view local times or setup timezone preferences in your user account.

Time Position Orientation Groundspeed Altitude Reporting Facility
EDT Latitude Longitude Course Direction KTS MPH feet Rate Location/Type
12:14PM 31.5967 -88.0867 37° Northeast 120 138 5,300  Level Houston Center
12:15PM 31.6236 -88.0617 38° Northeast 123 142 6,200 840 Climbing Houston Center
12:15PM 31.6419 -88.0442 39° Northeast 126 145 6,700 540 Climbing Atlanta Center
12:16PM 31.6742 -88.0161 37° Northeast 132 152 7,100 420 Climbing Atlanta Center
12:17PM 31.7108 -87.9811 39° Northeast 145 167 7,600 780 Climbing Atlanta Center
12:18PM 31.6427 -88.0034 35° Northeast  Level FlightAware Approximate
12:18PM 31.7411 -87.9508 40° Northeast 150 173 8,700  Level Atlanta Center
12:19PM 31.6767 -87.9744 37° Northeast  Level FlightAware Approximate
12:19PM 31.7733 -87.9206 39° Northeast 137 158 9,100  Level Atlanta Center
12:20PM 31.8100 -87.8853 39° Northeast 150 173 9,100  Level Atlanta Center
12:21PM 31.8506 -87.8506 36° Northeast 163 188 9,100  Level Atlanta Center
12:22PM 31.8892 -87.8178 36° Northeast 163 188 9,100  Level Atlanta Center
12:23PM 31.9258 -87.7803 41° Northeast 163 188 9,100  Level Atlanta Center
12:24PM 31.9664 -87.7453 36° Northeast 163 188 9,100  Level Atlanta Center
12:25PM 32.0011 -87.7075 43° Northeast 163 188 9,100  Level Atlanta Center
12:26PM 32.0417 -87.6772 32° Northeast 163 188 9,100  Level Atlanta Center
12:27PM 32.0739 -87.6394 45° Northeast 168 193 9,100  Level Atlanta Center
12:28PM 32.1106 -87.5992 43° Northeast 168 193 9,100  Level Atlanta Center
12:29PM 32.1450 -87.5636 41° Northeast 168 193 9,100  Level Atlanta Center
12:30PM 32.1836 -87.5283 38° Northeast 168 193 9,100  Level Atlanta Center
12:31PM 32.2283 -87.4983 30° Northeast 162 186 9,100  Level Atlanta Center
12:32PM 32.2647 -87.4628 40° Northeast 162 186 9,100  Level Atlanta Center
12:33PM 32.3033 -87.4275 38° Northeast 162 186 9,100  Level Atlanta Center
12:34PM 32.3397 -87.3944 38° Northeast 162 186 9,100  Level Atlanta Center
12:35PM 32.3781 -87.3614 36° Northeast 162 186 9,100  Level Atlanta Center
12:36PM 32.4106 -87.3233 45° Northeast 167 192 9,100  Level Atlanta Center
12:37PM 32.4469 -87.2878 40° Northeast 167 192 9,100  Level Atlanta Center
12:38PM 32.4811 -87.2544 39° Northeast 167 192 9,100  Level Atlanta Center
12:39PM 32.5197 -87.2214 36° Northeast 160 184 9,100  Level Atlanta Center
12:40PM 32.5558 -87.1883 38° Northeast 160 184 9,100  Level Atlanta Center
12:41PM 32.5964 -87.1528 36° Northeast 160 184 9,100  Level Atlanta Center
12:42PM 32.6308 -87.1194 39° Northeast 160 184 9,100  Level Atlanta Center
12:43PM 32.6692 -87.0839 38° Northeast 160 184 9,100  Level Atlanta Center
12:44PM 32.7056 -87.0481 40° Northeast 160 184 9,100  Level Atlanta Center
12:45PM 32.7419 -87.0147 38° Northeast 160 184 9,100  Level Atlanta Center
12:46PM 32.7803 -86.9789 38° Northeast 160 184 9,100  Level Atlanta Center
12:47PM 32.8167 -86.9456 38° Northeast 160 184 9,100  Level Atlanta Center
12:48PM 32.8550 -86.9097 38° Northeast 160 184 9,100  Level Atlanta Center
12:49PM 32.8869 -86.8858 32° Northeast 171 197 9,100  Level Atlanta Center
12:50PM 32.9272 -86.8478 38° Northeast 171 197 9,100  Level Atlanta Center
12:51PM 32.9617 -86.8117 41° Northeast 171 197 9,100  Level Atlanta Center
12:52PM 32.9914 -86.7878 34° Northeast 172 198 9,100  Level Atlanta Center
12:53PM 33.0361 -86.7447 39° Northeast 175 201 9,100 -120 Level Atlanta Center
12:54PM 33.0767 -86.7061 39° Northeast 172 198 8,900 -300 Descending Atlanta Center
12:55PM 33.1208 -86.6828 24° Northeast 178 205 8,500 -420 Descending Atlanta Center
12:56PM 33.1669 -86.6742 North 171 197 8,100 -420 Descending Atlanta Center
12:57PM 33.2089 -86.6631 12° North 170 196 7,700 -480 Descending Atlanta Center
12:58PM 33.2514 -86.6369 27° Northeast 179 206 7,200 -600 Descending Atlanta Center
12:59PM 33.2978 -86.6111 25° Northeast 179 206 6,500 -720 Descending Atlanta Center
01:00PM 33.3444 -86.5803 29° Northeast 174 200 5,800 -720 Descending Atlanta Center
01:01PM 33.3825 -86.5464 37° Northeast 180 207 5,100 -720 Descending Atlanta Center
01:02PM 33.4189 -86.5053 43° Northeast 179 206 4,400 -660 Descending Atlanta Center
01:03PM 33.4450 -86.4561 58° Northeast 168 193 3,800 -720 Descending Atlanta Center
01:04PM 33.4708 -86.4097 56° Northeast 163 188 2,900 -840 Descending Atlanta Center